sensor_id;sensor_type;location;lat;lon;timestamp;pressure;altitude;pressure_sealevel;temperature;humidity
52957;BME280;38819;42.692;23.342;2023-06-14T00:00:36;94999.44;;;18.57;83.15
52957;BME280;38819;42.692;23.342;2023-06-14T00:03:09;95004.31;;;18.63;82.91
52957;BME280;38819;42.692;23.342;2023-06-14T00:05:36;95004.47;;;18.55;83.06
52957;BME280;38819;42.692;23.342;2023-06-14T00:08:09;95006.72;;;18.52;83.16
52957;BME280;38819;42.692;23.342;2023-06-14T00:10:37;95006.19;;;18.47;82.90
52957;BME280;38819;42.692;23.342;2023-06-14T00:13:06;95005.50;;;18.50;82.85
52957;BME280;38819;42.692;23.342;2023-06-14T00:15:32;94999.44;;;18.57;82.75
52957;BME280;38819;42.692;23.342;2023-06-14T00:17:58;94993.19;;;18.56;82.79
52957;BME280;38819;42.692;23.342;2023-06-14T00:20:26;94993.44;;;18.51;83.15
52957;BME280;38819;42.692;23.342;2023-06-14T00:22:53;94986.59;;;18.45;83.63
52957;BME280;38819;42.692;23.342;2023-06-14T00:25:19;94990.13;;;18.45;83.75
52957;BME280;38819;42.692;23.342;2023-06-14T00:27:44;94988.56;;;18.44;83.11
52957;BME280;38819;42.692;23.342;2023-06-14T00:30:10;94990.78;;;18.55;83.32
52957;BME280;38819;42.692;23.342;2023-06-14T00:32:36;94987.41;;;18.45;83.32
52957;BME280;38819;42.692;23.342;2023-06-14T00:35:01;94993.44;;;18.51;83.30
52957;BME280;38819;42.692;23.342;2023-06-14T00:37:27;94981.03;;;18.41;83.80
52957;BME280;38819;42.692;23.342;2023-06-14T00:39:52;94981.59;;;18.47;83.38
52957;BME280;38819;42.692;23.342;2023-06-14T00:42:27;94983.19;;;18.48;84.03
52957;BME280;38819;42.692;23.342;2023-06-14T00:44:54;94975.41;;;18.50;84.17
52957;BME280;38819;42.692;23.342;2023-06-14T00:47:21;94973.81;;;18.49;84.34
52957;BME280;38819;42.692;23.342;2023-06-14T00:49:48;94977.19;;;18.58;83.23
52957;BME280;38819;42.692;23.342;2023-06-14T00:52:15;94986.81;;;18.52;82.40
52957;BME280;38819;42.692;23.342;2023-06-14T00:54:41;94974.81;;;18.57;82.29
52957;BME280;38819;42.692;23.342;2023-06-14T00:57:08;94976.03;;;18.59;82.66
52957;BME280;38819;42.692;23.342;2023-06-14T00:59:35;94977.38;;;18.49;82.90
52957;BME280;38819;42.692;23.342;2023-06-14T01:02:04;94975.16;;;18.55;82.67
52957;BME280;38819;42.692;23.342;2023-06-14T01:04:29;94971.56;;;18.51;82.25
52957;BME280;38819;42.692;23.342;2023-06-14T01:12:25;94972.38;;;18.39;83.41
52957;BME280;38819;42.692;23.342;2023-06-14T01:14:54;94981.03;;;18.41;83.02
52957;BME280;38819;42.692;23.342;2023-06-14T01:17:22;94968.84;;;18.39;83.20
52957;BME280;38819;42.692;23.342;2023-06-14T01:19:48;94970.72;;;18.35;83.32
52957;BME280;38819;42.692;23.342;2023-06-14T01:22:14;94969.75;;;18.43;83.98
52957;BME280;38819;42.692;23.342;2023-06-14T01:24:40;94975.09;;;18.39;83.69
52957;BME280;38819;42.692;23.342;2023-06-14T01:27:12;94971.50;;;18.35;83.92
52957;BME280;38819;42.692;23.342;2023-06-14T01:29:39;94970.81;;;18.38;84.01
52957;BME280;38819;42.692;23.342;2023-06-14T01:32:05;94968.25;;;18.45;84.10
52957;BME280;38819;42.692;23.342;2023-06-14T01:34:31;94977.50;;;18.41;83.95
52957;BME280;38819;42.692;23.342;2023-06-14T01:36:57;94974.88;;;18.44;84.01
52957;BME280;38819;42.692;23.342;2023-06-14T01:39:25;94975.75;;;18.48;84.60
52957;BME280;38819;42.692;23.342;2023-06-14T01:41:51;94972.69;;;18.50;84.17
52957;BME280;38819;42.692;23.342;2023-06-14T01:44:18;94967.13;;;18.46;83.95
52957;BME280;38819;42.692;23.342;2023-06-14T01:46:44;94970.13;;;18.41;83.58
52957;BME280;38819;42.692;23.342;2023-06-14T01:49:10;94969.63;;;18.39;83.42
52957;BME280;38819;42.692;23.342;2023-06-14T01:51:36;94967.75;;;18.27;83.50
52957;BME280;38819;42.692;23.342;2023-06-14T01:54:01;94968.22;;;18.29;83.53
52957;BME280;38819;42.692;23.342;2023-06-14T01:56:27;94974.03;;;18.28;83.32
52957;BME280;38819;42.692;23.342;2023-06-14T01:58:53;94972.59;;;18.18;82.76
52957;BME280;38819;42.692;23.342;2023-06-14T02:01:19;94982.94;;;18.25;83.23
52957;BME280;38819;42.692;23.342;2023-06-14T02:03:47;94981.91;;;18.17;83.24
52957;BME280;38819;42.692;23.342;2023-06-14T02:06:13;94981.91;;;18.17;83.58
52957;BME280;38819;42.692;23.342;2023-06-14T02:08:41;94997.53;;;18.17;84.15
52957;BME280;38819;42.692;23.342;2023-06-14T02:11:06;94998.75;;;18.19;83.85
52957;BME280;38819;42.692;23.342;2023-06-14T02:13:32;94995.94;;;18.15;84.02
52957;BME280;38819;42.692;23.342;2023-06-14T02:15:57;95002.22;;;18.16;83.86
52957;BME280;38819;42.692;23.342;2023-06-14T02:18:24;94998.13;;;18.10;84.33
52957;BME280;38819;42.692;23.342;2023-06-14T02:20:50;95005.88;;;18.08;84.40
52957;BME280;38819;42.692;23.342;2023-06-14T02:23:16;94996.84;;;18.07;84.36
52957;BME280;38819;42.692;23.342;2023-06-14T02:25:41;95002.13;;;18.00;84.92
52957;BME280;38819;42.692;23.342;2023-06-14T02:28:08;95007.94;;;17.99;85.10
52957;BME280;38819;42.692;23.342;2023-06-14T02:30:33;95007.00;;;18.07;84.88
52957;BME280;38819;42.692;23.342;2023-06-14T02:32:58;95015.66;;;18.09;84.38
52957;BME280;38819;42.692;23.342;2023-06-14T02:35:24;95007.78;;;18.07;84.51
52957;BME280;38819;42.692;23.342;2023-06-14T02:37:52;95005.88;;;18.08;84.15
52957;BME280;38819;42.692;23.342;2023-06-14T02:40:18;95015.09;;;18.03;83.98
52957;BME280;38819;42.692;23.342;2023-06-14T02:42:43;95001.69;;;17.98;84.54
52957;BME280;38819;42.692;23.342;2023-06-14T02:45:09;95010.44;;;18.04;84.48
52957;BME280;38819;42.692;23.342;2023-06-14T02:47:35;94997.69;;;18.08;83.93
52957;BME280;38819;42.692;23.342;2023-06-14T02:50:00;95005.97;;;17.99;83.80
52957;BME280;38819;42.692;23.342;2023-06-14T02:52:28;95005.06;;;18.07;83.75
52957;BME280;38819;42.692;23.342;2023-06-14T02:54:54;94998.50;;;17.96;83.42
52957;BME280;38819;42.692;23.342;2023-06-14T02:57:20;95010.22;;;17.96;83.63
52957;BME280;38819;42.692;23.342;2023-06-14T02:59:45;95011.81;;;17.98;83.74
52957;BME280;38819;42.692;23.342;2023-06-14T03:02:11;95008.28;;;17.97;83.66
52957;BME280;38819;42.692;23.342;2023-06-14T03:04:36;95016.72;;;18.04;83.41
52957;BME280;38819;42.692;23.342;2023-06-14T03:07:06;95014.19;;;17.99;83.86
52957;BME280;38819;42.692;23.342;2023-06-14T03:09:37;95017.28;;;17.98;83.99
52957;BME280;38819;42.692;23.342;2023-06-14T03:12:04;95017.06;;;17.90;84.21
52957;BME280;38819;42.692;23.342;2023-06-14T03:14:30;95026.28;;;17.98;83.75
52957;BME280;38819;42.692;23.342;2023-06-14T03:16:56;95022.38;;;17.99;83.76
52957;BME280;38819;42.692;23.342;2023-06-14T03:19:23;95021.25;;;18.00;83.82
52957;BME280;38819;42.692;23.342;2023-06-14T03:21:48;95021.34;;;18.04;83.48
52957;BME280;38819;42.692;23.342;2023-06-14T03:24:14;95034.78;;;18.09;83.44
52957;BME280;38819;42.692;23.342;2023-06-14T03:26:41;95030.00;;;18.06;84.16
52957;BME280;38819;42.692;23.342;2023-06-14T03:29:07;95022.47;;;18.15;83.67
52957;BME280;38819;42.692;23.342;2023-06-14T03:31:34;95028.19;;;18.10;83.03
52957;BME280;38819;42.692;23.342;2023-06-14T03:34:00;95021.78;;;18.06;83.65
52957;BME280;38819;42.692;23.342;2023-06-14T03:36:25;95026.56;;;18.09;83.26
52957;BME280;38819;42.692;23.342;2023-06-14T03:38:51;95022.03;;;18.01;83.81
52957;BME280;38819;42.692;23.342;2023-06-14T03:41:16;95029.44;;;18.00;83.60
52957;BME280;38819;42.692;23.342;2023-06-14T03:43:42;95034.91;;;18.00;84.05
52957;BME280;38819;42.692;23.342;2023-06-14T03:46:07;95030.13;;;17.97;83.85
52957;BME280;38819;42.692;23.342;2023-06-14T03:48:33;95031.84;;;18.02;83.90
52957;BME280;38819;42.692;23.342;2023-06-14T03:50:58;95033.88;;;18.05;83.75
52957;BME280;38819;42.692;23.342;2023-06-14T03:53:23;95039.59;;;18.00;84.16
52957;BME280;38819;42.692;23.342;2023-06-14T03:55:49;95034.69;;;18.05;84.10
52957;BME280;38819;42.692;23.342;2023-06-14T03:58:17;95040.81;;;18.02;83.74
52957;BME280;38819;42.692;23.342;2023-06-14T04:00:43;95029.88;;;18.14;83.73
52957;BME280;38819;42.692;23.342;2023-06-14T04:03:08;95037.84;;;18.20;83.07
52957;BME280;38819;42.692;23.342;2023-06-14T04:05:34;95043.31;;;18.20;82.66
52957;BME280;38819;42.692;23.342;2023-06-14T04:07:59;95031.47;;;18.15;82.86
52957;BME280;38819;42.692;23.342;2023-06-14T04:10:26;95038.78;;;18.11;82.82
52957;BME280;38819;42.692;23.342;2023-06-14T04:12:51;95040.81;;;18.14;83.53
52957;BME280;38819;42.692;23.342;2023-06-14T04:15:17;95032.69;;;18.30;82.86
52957;BME280;38819;42.692;23.342;2023-06-14T04:17:42;95045.84;;;18.41;82.48
52957;BME280;38819;42.692;23.342;2023-06-14T04:20:08;95031.94;;;18.46;82.18
52957;BME280;38819;42.692;23.342;2023-06-14T04:22:35;95031.00;;;18.54;81.42
52957;BME280;38819;42.692;23.342;2023-06-14T04:25:01;95030.28;;;18.69;81.22
52957;BME280;38819;42.692;23.342;2023-06-14T04:27:27;95032.75;;;18.75;80.61
52957;BME280;38819;42.692;23.342;2023-06-14T04:29:54;95034.88;;;18.81;79.87
52957;BME280;38819;42.692;23.342;2023-06-14T04:32:25;95035.75;;;18.98;78.97
52957;BME280;38819;42.692;23.342;2023-06-14T04:34:53;95037.97;;;19.08;78.93
52957;BME280;38819;42.692;23.342;2023-06-14T04:37:20;95043.88;;;19.26;78.70
52957;BME280;38819;42.692;23.342;2023-06-14T04:39:47;95035.25;;;19.40;78.31
52957;BME280;38819;42.692;23.342;2023-06-14T04:42:13;95035.31;;;19.43;78.02
52957;BME280;38819;42.692;23.342;2023-06-14T04:44:41;95038.78;;;19.56;77.81
52957;BME280;38819;42.692;23.342;2023-06-14T04:47:07;95030.66;;;19.60;76.67
52957;BME280;38819;42.692;23.342;2023-06-14T04:49:32;95043.28;;;19.65;76.28
52957;BME280;38819;42.692;23.342;2023-06-14T04:51:59;95043.28;;;19.65;75.66
52957;BME280;38819;42.692;23.342;2023-06-14T04:54:26;95044.41;;;19.63;75.58
52957;BME280;38819;42.692;23.342;2023-06-14T04:56:52;95041.25;;;19.61;75.86
52957;BME280;38819;42.692;23.342;2023-06-14T04:59:18;95050.00;;;19.51;76.01
52957;BME280;38819;42.692;23.342;2023-06-14T05:01:44;95041.16;;;19.58;76.09
52957;BME280;38819;42.692;23.342;2023-06-14T05:04:17;95059.44;;;19.70;76.46
52957;BME280;38819;42.692;23.342;2023-06-14T05:06:43;95060.22;;;19.70;77.22
52957;BME280;38819;42.692;23.342;2023-06-14T05:09:11;95056.78;;;19.73;76.64
52957;BME280;38819;42.692;23.342;2023-06-14T05:11:36;95058.84;;;19.76;76.55
52957;BME280;38819;42.692;23.342;2023-06-14T05:14:02;95059.28;;;19.78;76.13
52957;BME280;38819;42.692;23.342;2023-06-14T05:16:27;95049.34;;;19.74;75.48
52957;BME280;38819;42.692;23.342;2023-06-14T05:18:54;95063.72;;;19.83;74.63
52957;BME280;38819;42.692;23.342;2023-06-14T05:21:20;95063.06;;;19.74;74.88
52957;BME280;38819;42.692;23.342;2023-06-14T05:23:46;95063.59;;;19.79;74.63
52957;BME280;38819;42.692;23.342;2023-06-14T05:26:11;95064.84;;;19.82;74.64
52957;BME280;38819;42.692;23.342;2023-06-14T05:28:37;95073.31;;;19.93;74.52
52957;BME280;38819;42.692;23.342;2023-06-14T05:31:02;95077.81;;;20.01;74.73
52957;BME280;38819;42.692;23.342;2023-06-14T05:33:28;95074.91;;;19.94;74.28
52957;BME280;38819;42.692;23.342;2023-06-14T05:35:54;95075.34;;;19.96;74.16
52957;BME280;38819;42.692;23.342;2023-06-14T05:38:19;95083.91;;;19.94;75.16
52957;BME280;38819;42.692;23.342;2023-06-14T05:40:45;95084.38;;;19.96;74.79
52957;BME280;38819;42.692;23.342;2023-06-14T05:43:10;95070.22;;;19.94;74.50
52957;BME280;38819;42.692;23.342;2023-06-14T05:45:36;95084.47;;;20.00;74.57
52957;BME280;38819;42.692;23.342;2023-06-14T05:48:01;95082.78;;;19.95;75.36
52957;BME280;38819;42.692;23.342;2023-06-14T05:50:27;95092.59;;;19.96;75.25
52957;BME280;38819;42.692;23.342;2023-06-14T05:52:53;95082.44;;;19.97;74.84
52957;BME280;38819;42.692;23.342;2023-06-14T05:55:18;95089.31;;;20.07;74.67
52957;BME280;38819;42.692;23.342;2023-06-14T05:57:44;95093.38;;;19.81;74.82
52957;BME280;38819;42.692;23.342;2023-06-14T06:00:10;95088.72;;;19.82;74.22
52957;BME280;38819;42.692;23.342;2023-06-14T06:02:41;95090.66;;;19.81;74.53
52957;BME280;38819;42.692;23.342;2023-06-14T06:05:09;95093.31;;;19.77;74.58
52957;BME280;38819;42.692;23.342;2023-06-14T06:07:34;95090.56;;;19.77;74.66
52957;BME280;38819;42.692;23.342;2023-06-14T06:09:59;95092.97;;;19.79;75.00
52957;BME280;38819;42.692;23.342;2023-06-14T06:12:25;95093.31;;;19.77;75.67
52957;BME280;38819;42.692;23.342;2023-06-14T06:14:50;95090.38;;;19.86;75.81
52957;BME280;38819;42.692;23.342;2023-06-14T06:17:16;95097.81;;;19.70;75.98
52957;BME280;38819;42.692;23.342;2023-06-14T06:19:41;95095.69;;;19.79;75.28
52957;BME280;38819;42.692;23.342;2023-06-14T06:22:06;95095.34;;;19.80;76.23
52957;BME280;38819;42.692;23.342;2023-06-14T06:24:33;95103.13;;;19.78;76.50
52957;BME280;38819;42.692;23.342;2023-06-14T06:26:58;95106.75;;;19.83;75.32
52957;BME280;38819;42.692;23.342;2023-06-14T06:29:24;95098.25;;;19.72;76.60
52957;BME280;38819;42.692;23.342;2023-06-14T06:31:49;95104.69;;;19.79;76.51
52957;BME280;38819;42.692;23.342;2023-06-14T06:34:15;95105.09;;;19.78;75.65
52957;BME280;38819;42.692;23.342;2023-06-14T06:36:40;95108.56;;;19.62;76.00
52957;BME280;38819;42.692;23.342;2023-06-14T06:39:05;95108.41;;;19.55;76.92
52957;BME280;38819;42.692;23.342;2023-06-14T06:41:36;95110.00;;;19.56;77.11
52957;BME280;38819;42.692;23.342;2023-06-14T06:44:02;95109.47;;;19.67;76.82
52957;BME280;38819;42.692;23.342;2023-06-14T06:46:28;95112.00;;;19.59;76.19
52957;BME280;38819;42.692;23.342;2023-06-14T06:48:53;95108.13;;;19.60;76.52
52957;BME280;38819;42.692;23.342;2023-06-14T06:51:19;95112.91;;;19.63;76.60
52957;BME280;38819;42.692;23.342;2023-06-14T06:53:54;95115.59;;;19.76;76.50
52957;BME280;38819;42.692;23.342;2023-06-14T06:56:21;95112.94;;;19.79;76.91
52957;BME280;38819;42.692;23.342;2023-06-14T06:58:49;95113.91;;;19.71;76.60
52957;BME280;38819;42.692;23.342;2023-06-14T07:01:14;95105.34;;;19.89;76.11
52957;BME280;38819;42.692;23.342;2023-06-14T07:03:40;95115.16;;;19.90;76.60
52957;BME280;38819;42.692;23.342;2023-06-14T07:06:05;95112.13;;;19.79;76.89
52957;BME280;38819;42.692;23.342;2023-06-14T07:08:31;95109.47;;;19.83;77.08
52957;BME280;38819;42.692;23.342;2023-06-14T07:10:56;95108.69;;;19.82;77.09
52957;BME280;38819;42.692;23.342;2023-06-14T07:13:22;95111.69;;;19.77;77.57
52957;BME280;38819;42.692;23.342;2023-06-14T07:15:47;95115.66;;;19.79;78.14
52957;BME280;38819;42.692;23.342;2023-06-14T07:18:13;95109.19;;;19.72;78.37
52957;BME280;38819;42.692;23.342;2023-06-14T07:20:38;95115.22;;;19.77;77.36
52957;BME280;38819;42.692;23.342;2023-06-14T07:23:04;95098.00;;;19.77;78.01
52957;BME280;38819;42.692;23.342;2023-06-14T07:25:30;95109.13;;;19.84;76.97
52957;BME280;38819;42.692;23.342;2023-06-14T07:27:56;95103.47;;;19.93;77.10
52957;BME280;38819;42.692;23.342;2023-06-14T07:30:21;95092.50;;;19.93;76.84
52957;BME280;38819;42.692;23.342;2023-06-14T07:32:51;95104.50;;;20.20;75.92
52957;BME280;38819;42.692;23.342;2023-06-14T07:35:17;95101.00;;;20.39;74.93
52957;BME280;38819;42.692;23.342;2023-06-14T07:37:43;95100.78;;;20.48;74.34
52957;BME280;38819;42.692;23.342;2023-06-14T07:40:09;95099.13;;;20.43;74.53
52957;BME280;38819;42.692;23.342;2023-06-14T07:42:35;95101.34;;;20.38;74.21
52957;BME280;38819;42.692;23.342;2023-06-14T07:45:04;95098.41;;;20.46;73.47
52957;BME280;38819;42.692;23.342;2023-06-14T07:47:29;95097.84;;;20.57;73.52
52957;BME280;38819;42.692;23.342;2023-06-14T07:49:55;95102.88;;;20.70;72.55
52957;BME280;38819;42.692;23.342;2023-06-14T07:52:20;95107.47;;;20.66;71.77
52957;BME280;38819;42.692;23.342;2023-06-14T07:54:46;95107.13;;;20.87;71.48
52957;BME280;38819;42.692;23.342;2023-06-14T07:57:11;95114.13;;;21.04;70.77
52957;BME280;38819;42.692;23.342;2023-06-14T07:59:37;95106.91;;;21.16;69.39
52957;BME280;38819;42.692;23.342;2023-06-14T08:02:02;95112.28;;;21.32;68.46
52957;BME280;38819;42.692;23.342;2023-06-14T08:04:28;95112.91;;;21.44;67.81
52957;BME280;38819;42.692;23.342;2023-06-14T08:06:53;95109.22;;;21.56;67.28
52957;BME280;38819;42.692;23.342;2023-06-14T08:09:19;95116.75;;;21.59;67.53
52957;BME280;38819;42.692;23.342;2023-06-14T08:11:44;95121.75;;;21.54;67.46
52957;BME280;38819;42.692;23.342;2023-06-14T08:14:10;95131.69;;;21.19;68.90
52957;BME280;38819;42.692;23.342;2023-06-14T08:16:35;95140.22;;;21.14;68.80
52957;BME280;38819;42.692;23.342;2023-06-14T08:19:00;95134.84;;;21.21;68.77
52957;BME280;38819;42.692;23.342;2023-06-14T08:21:26;95133.03;;;21.29;68.68
52957;BME280;38819;42.692;23.342;2023-06-14T08:23:54;95137.75;;;21.28;67.79
52957;BME280;38819;42.692;23.342;2023-06-14T08:26:20;95132.44;;;21.39;67.65
52957;BME280;38819;42.692;23.342;2023-06-14T08:28:46;95133.69;;;21.42;67.49
52957;BME280;38819;42.692;23.342;2023-06-14T08:31:11;95133.84;;;21.49;67.41
52957;BME280;38819;42.692;23.342;2023-06-14T08:33:37;95135.44;;;21.50;67.52
52957;BME280;38819;42.692;23.342;2023-06-14T08:36:04;95138.44;;;21.45;68.37
52957;BME280;38819;42.692;23.342;2023-06-14T08:38:30;95128.63;;;21.44;67.77
52957;BME280;38819;42.692;23.342;2023-06-14T08:40:57;95132.94;;;21.45;67.91
52957;BME280;38819;42.692;23.342;2023-06-14T08:43:23;95120.78;;;21.46;66.87
52957;BME280;38819;42.692;23.342;2023-06-14T08:45:53;95121.59;;;21.46;67.06
52957;BME280;38819;42.692;23.342;2023-06-14T08:48:24;95122.91;;;21.53;66.50
52957;BME280;38819;42.692;23.342;2023-06-14T08:50:52;95124.16;;;21.55;65.90
52957;BME280;38819;42.692;23.342;2023-06-14T08:53:19;95112.53;;;21.65;64.86
52957;BME280;38819;42.692;23.342;2023-06-14T08:55:46;95103.13;;;21.67;63.94
52957;BME280;38819;42.692;23.342;2023-06-14T08:58:13;95112.22;;;21.71;64.42
52957;BME280;38819;42.692;23.342;2023-06-14T09:00:39;95113.88;;;21.75;64.69
52957;BME280;38819;42.692;23.342;2023-06-14T09:03:08;95120.78;;;21.65;63.73
52957;BME280;38819;42.692;23.342;2023-06-14T09:05:38;95107.97;;;21.50;65.27
52957;BME280;38819;42.692;23.342;2023-06-14T09:08:04;95108.81;;;21.54;65.22
52957;BME280;38819;42.692;23.342;2023-06-14T09:10:31;95113.94;;;21.56;65.45
52957;BME280;38819;42.692;23.342;2023-06-14T09:13:02;95119.81;;;21.77;65.32
52957;BME280;38819;42.692;23.342;2023-06-14T09:15:30;95107.56;;;21.52;65.89
52957;BME280;38819;42.692;23.342;2023-06-14T09:17:55;95103.97;;;21.48;66.41
52957;BME280;38819;42.692;23.342;2023-06-14T09:20:23;95101.06;;;21.40;66.48
52957;BME280;38819;42.692;23.342;2023-06-14T09:22:49;95098.19;;;21.53;65.31
52957;BME280;38819;42.692;23.342;2023-06-14T09:25:15;95098.78;;;21.65;65.27
52957;BME280;38819;42.692;23.342;2023-06-14T09:27:41;95104.72;;;21.68;65.48
52957;BME280;38819;42.692;23.342;2023-06-14T09:30:09;95110.09;;;21.83;64.32
52957;BME280;38819;42.692;23.342;2023-06-14T09:32:39;95098.16;;;21.99;64.82
52957;BME280;38819;42.692;23.342;2023-06-14T09:35:08;95090.59;;;21.92;65.43
52957;BME280;38819;42.692;23.342;2023-06-14T09:37:35;95102.06;;;21.98;64.98
52957;BME280;38819;42.692;23.342;2023-06-14T09:40:01;95103.53;;;21.92;64.62
52957;BME280;38819;42.692;23.342;2023-06-14T09:42:28;95095.41;;;21.99;63.97
52957;BME280;38819;42.692;23.342;2023-06-14T09:44:56;95092.34;;;22.04;64.34
52957;BME280;38819;42.692;23.342;2023-06-14T09:47:23;95090.00;;;22.06;64.14
52957;BME280;38819;42.692;23.342;2023-06-14T09:49:49;95079.56;;;22.15;62.79
52957;BME280;38819;42.692;23.342;2023-06-14T09:52:17;95089.25;;;22.32;63.27
52957;BME280;38819;42.692;23.342;2023-06-14T09:54:45;95089.50;;;22.24;62.33
52957;BME280;38819;42.692;23.342;2023-06-14T09:57:22;95085.94;;;22.23;62.30
52957;BME280;38819;42.692;23.342;2023-06-14T09:59:48;95076.50;;;22.20;62.49
52957;BME280;38819;42.692;23.342;2023-06-14T10:02:34;95078.88;;;22.22;61.98
52957;BME280;38819;42.692;23.342;2023-06-14T10:05:08;95074.53;;;22.21;62.48
52957;BME280;38819;42.692;23.342;2023-06-14T10:07:39;95075.63;;;22.16;62.30
52957;BME280;38819;42.692;23.342;2023-06-14T10:10:06;95070.03;;;22.09;62.57
52957;BME280;38819;42.692;23.342;2023-06-14T10:12:31;95059.63;;;21.95;62.11
52957;BME280;38819;42.692;23.342;2023-06-14T10:14:57;95059.41;;;22.08;62.33
52957;BME280;38819;42.692;23.342;2023-06-14T10:17:31;95062.47;;;22.29;61.85
52957;BME280;38819;42.692;23.342;2023-06-14T10:22:51;95055.72;;;22.27;61.57
52957;BME280;38819;42.692;23.342;2023-06-14T10:25:28;95061.34;;;22.30;62.12
52957;BME280;38819;42.692;23.342;2023-06-14T10:31:09;95056.25;;;22.63;61.67
52957;BME280;38819;42.692;23.342;2023-06-14T10:33:41;95061.59;;;22.52;60.53
52957;BME280;38819;42.692;23.342;2023-06-14T10:39:20;95044.31;;;22.85;61.19
52957;BME280;38819;42.692;23.342;2023-06-14T10:41:53;95049.03;;;22.85;59.53
52957;BME280;38819;42.692;23.342;2023-06-14T10:46:54;95040.47;;;22.93;58.83
52957;BME280;38819;42.692;23.342;2023-06-14T10:52:16;95042.94;;;23.02;60.36
52957;BME280;38819;42.692;23.342;2023-06-14T10:55:07;95034.03;;;23.12;61.78
52957;BME280;38819;42.692;23.342;2023-06-14T10:57:42;95023.91;;;23.24;61.84
52957;BME280;38819;42.692;23.342;2023-06-14T11:00:09;95014.34;;;23.10;60.76
52957;BME280;38819;42.692;23.342;2023-06-14T11:05:29;95021.25;;;22.97;60.53
52957;BME280;38819;42.692;23.342;2023-06-14T11:10:43;95015.78;;;23.01;58.95
52957;BME280;38819;42.692;23.342;2023-06-14T11:13:11;95009.88;;;23.02;59.96
52957;BME280;38819;42.692;23.342;2023-06-14T11:15:37;95016.56;;;23.01;58.64
52957;BME280;38819;42.692;23.342;2023-06-14T11:18:07;95010.28;;;23.04;59.01
52957;BME280;38819;42.692;23.342;2023-06-14T11:20:36;95003.25;;;23.07;59.33
52957;BME280;38819;42.692;23.342;2023-06-14T11:23:02;95011.50;;;23.07;59.81
52957;BME280;38819;42.692;23.342;2023-06-14T11:25:28;95009.66;;;23.18;59.31
52957;BME280;38819;42.692;23.342;2023-06-14T11:27:55;94993.66;;;23.31;59.13
52957;BME280;38819;42.692;23.342;2023-06-14T11:30:21;94990.59;;;23.43;57.57
52957;BME280;38819;42.692;23.342;2023-06-14T11:32:47;94992.19;;;23.44;57.16
52957;BME280;38819;42.692;23.342;2023-06-14T11:35:13;94997.56;;;23.30;58.85
52957;BME280;38819;42.692;23.342;2023-06-14T11:37:39;94996.41;;;23.31;58.56
52957;BME280;38819;42.692;23.342;2023-06-14T11:40:07;94994.00;;;23.26;57.60
52957;BME280;38819;42.692;23.342;2023-06-14T11:42:35;94992.16;;;23.41;56.69
52957;BME280;38819;42.692;23.342;2023-06-14T11:45:02;94994.75;;;23.23;57.21
52957;BME280;38819;42.692;23.342;2023-06-14T11:47:32;94977.75;;;23.13;56.91
52957;BME280;38819;42.692;23.342;2023-06-14T11:49:59;94979.38;;;23.18;56.88
52957;BME280;38819;42.692;23.342;2023-06-14T11:52:25;94974.31;;;23.24;58.30
52957;BME280;38819;42.692;23.342;2023-06-14T11:54:50;94969.59;;;23.24;57.26
52957;BME280;38819;42.692;23.342;2023-06-14T11:57:18;94971.22;;;23.29;57.38
52957;BME280;38819;42.692;23.342;2023-06-14T11:59:44;94973.63;;;23.38;58.09
52957;BME280;38819;42.692;23.342;2023-06-14T12:02:13;94966.16;;;23.38;59.09
52957;BME280;38819;42.692;23.342;2023-06-14T12:04:41;94958.25;;;23.33;58.08
52957;BME280;38819;42.692;23.342;2023-06-14T12:07:10;94952.41;;;23.42;56.50
52957;BME280;38819;42.692;23.342;2023-06-14T12:09:41;94949.00;;;23.59;56.24
52957;BME280;38819;42.692;23.342;2023-06-14T12:12:08;94945.91;;;23.68;57.39
52957;BME280;38819;42.692;23.342;2023-06-14T12:14:34;94946.31;;;23.74;56.83
52957;BME280;38819;42.692;23.342;2023-06-14T12:17:06;94947.13;;;23.71;55.27
52957;BME280;38819;42.692;23.342;2023-06-14T12:19:45;94944.31;;;23.67;54.36
52957;BME280;38819;42.692;23.342;2023-06-14T12:22:12;94936.56;;;23.83;55.10
52957;BME280;38819;42.692;23.342;2023-06-14T12:24:37;94927.94;;;23.89;54.93
52957;BME280;38819;42.692;23.342;2023-06-14T12:27:06;94929.16;;;23.95;55.23
52957;BME280;38819;42.692;23.342;2023-06-14T12:29:32;94931.56;;;24.03;55.26
52957;BME280;38819;42.692;23.342;2023-06-14T12:31:57;94930.03;;;24.13;54.50
52957;BME280;38819;42.692;23.342;2023-06-14T12:34:27;94927.25;;;24.06;55.75
52957;BME280;38819;42.692;23.342;2023-06-14T12:36:54;94925.34;;;24.25;56.58
52957;BME280;38819;42.692;23.342;2023-06-14T12:39:19;94923.81;;;24.34;55.72
52957;BME280;38819;42.692;23.342;2023-06-14T12:41:46;94924.22;;;24.40;56.54
52957;BME280;38819;42.692;23.342;2023-06-14T12:44:11;94920.22;;;24.27;54.44
52957;BME280;38819;42.692;23.342;2023-06-14T12:46:37;94915.09;;;24.21;54.08
52957;BME280;38819;42.692;23.342;2023-06-14T12:49:09;94907.59;;;24.18;54.33
52957;BME280;38819;42.692;23.342;2023-06-14T12:51:36;94901.75;;;24.34;54.38
52957;BME280;38819;42.692;23.342;2023-06-14T12:54:01;94908.88;;;24.46;55.05
52957;BME280;38819;42.692;23.342;2023-06-14T12:56:27;94902.56;;;24.49;55.78
52957;BME280;38819;42.692;23.342;2023-06-14T12:58:52;94900.22;;;24.48;55.69
52957;BME280;38819;42.692;23.342;2023-06-14T13:01:18;94908.06;;;24.38;56.55
52957;BME280;38819;42.692;23.342;2023-06-14T13:03:45;94908.81;;;24.32;54.78
52957;BME280;38819;42.692;23.342;2023-06-14T13:06:10;94907.66;;;24.36;54.03
52957;BME280;38819;42.692;23.342;2023-06-14T13:08:36;94916.31;;;24.38;53.92
52957;BME280;38819;42.692;23.342;2023-06-14T13:11:01;94905.69;;;24.37;54.32
52957;BME280;38819;42.692;23.342;2023-06-14T13:13:27;94904.91;;;24.47;54.38